Time;durP1;ratioP1;P1;durP2;ratioP2;P2;SDS_P1;SDS_P2;PMS_P1;PMS_P2;Temp;Humidity;BMP_temperature;BMP_pressure;BME280_temperature;BME280_humidity;BME280_pressure;Samples;Min_cycle;Max_cycle;Signal;HPM_P1;HPM_P2
2022/11/09 00:01:36;;;;;;;3.45;1.60;;;15.00;99.90;;;;;;5103306;28;20020;-69
2022/11/09 00:04:04;;;;;;;3.17;1.65;;;15.00;99.90;;;;;;5106894;28;20024;-69
2022/11/09 00:06:31;;;;;;;6.22;2.13;;;15.00;99.90;;;;;;5111630;28;20090;-69
2022/11/09 00:08:57;;;;;;;6.75;1.98;;;15.00;99.90;;;;;;5110670;28;20395;-69
2022/11/09 00:11:22;;;;;;;6.32;2.15;;;15.00;99.90;;;;;;5109951;28;20024;-69
2022/11/09 00:13:48;;;;;;;4.28;1.85;;;15.00;99.90;;;;;;5082890;28;20077;-69
2022/11/09 00:16:17;;;;;;;2.85;2.10;;;15.00;99.90;;;;;;5094259;28;20020;-69
2022/11/09 00:18:46;;;;;;;6.88;2.03;;;15.10;99.90;;;;;;5099203;28;20020;-69
2022/11/09 00:21:20;;;;;;;4.43;2.08;;;15.00;99.90;;;;;;5106134;28;20059;-69
2022/11/09 00:23:46;;;;;;;4.20;1.85;;;15.10;99.90;;;;;;5103392;28;20030;-68
2022/11/09 00:26:14;;;;;;;5.43;1.90;;;15.00;99.90;;;;;;5107424;28;20020;-68
2022/11/09 00:28:40;;;;;;;9.13;2.00;;;15.10;99.90;;;;;;5107181;28;20035;-68
2022/11/09 00:31:09;;;;;;;7.07;1.85;;;15.10;99.90;;;;;;5104603;28;20429;-68
2022/11/09 00:33:35;;;;;;;6.45;2.10;;;15.10;99.90;;;;;;5106570;28;20031;-68
2022/11/09 00:36:06;;;;;;;4.53;1.88;;;15.10;99.90;;;;;;5105281;28;20027;-69
2022/11/09 00:38:33;;;;;;;4.43;1.70;;;15.10;99.90;;;;;;5109142;28;20028;-68
2022/11/09 00:41:00;;;;;;;3.72;1.73;;;15.10;99.90;;;;;;5110885;28;20048;-69
2022/11/09 00:43:26;;;;;;;7.28;1.80;;;15.10;99.90;;;;;;5113729;28;20054;-69
2022/11/09 00:45:52;;;;;;;4.80;1.90;;;15.00;99.90;;;;;;5108623;28;20090;-75
2022/11/09 00:48:17;;;;;;;7.15;1.98;;;15.10;99.90;;;;;;5109520;28;20491;-68
2022/11/09 00:50:51;;;;;;;4.28;1.90;;;15.10;99.90;;;;;;5109004;28;20111;-68
2022/11/09 00:53:17;;;;;;;6.30;1.70;;;15.10;99.90;;;;;;5101016;28;20058;-68
2022/11/09 00:55:56;;;;;;;7.70;2.55;;;15.10;99.90;;;;;;5109705;28;20030;-69
2022/11/09 00:58:22;;;;;;;6.20;1.92;;;15.00;99.90;;;;;;5103381;28;20031;-69
2022/11/09 01:00:47;;;;;;;5.32;1.80;;;15.00;99.90;;;;;;5107576;28;20024;-68
2022/11/09 01:03:13;;;;;;;6.22;2.50;;;14.90;99.90;;;;;;5104456;28;20357;-70
2022/11/09 01:05:39;;;;;;;3.67;2.25;;;15.00;99.90;;;;;;5101841;28;20039;-69
2022/11/09 01:08:05;;;;;;;4.40;1.80;;;14.90;99.90;;;;;;5101406;28;20240;-68
2022/11/09 01:10:31;;;;;;;7.32;2.65;;;14.90;99.90;;;;;;5107149;28;20034;-69
2022/11/09 01:12:57;;;;;;;6.70;2.28;;;14.90;99.90;;;;;;5104756;28;20024;-69
2022/11/09 01:15:23;;;;;;;7.47;2.15;;;14.90;99.90;;;;;;5111447;28;20098;-68
2022/11/09 01:17:48;;;;;;;8.32;2.17;;;14.80;99.90;;;;;;5109990;28;20035;-69
2022/11/09 01:20:15;;;;;;;6.13;2.30;;;14.80;99.90;;;;;;5111537;28;20044;-69
2022/11/09 01:22:40;;;;;;;4.78;1.67;;;14.90;99.90;;;;;;5104751;28;20020;-69
2022/11/09 01:25:07;;;;;;;6.57;1.75;;;14.90;99.90;;;;;;5100553;28;20042;-69
2022/11/09 01:27:32;;;;;;;4.97;1.98;;;14.90;99.90;;;;;;5109444;28;20476;-69
2022/11/09 01:29:58;;;;;;;5.60;1.45;;;14.90;99.90;;;;;;5107615;28;20023;-70
2022/11/09 01:32:23;;;;;;;9.43;2.22;;;15.00;99.90;;;;;;5104430;28;20512;-69
2022/11/09 01:34:49;;;;;;;8.70;1.92;;;14.90;99.90;;;;;;5104809;28;20019;-69
2022/11/09 01:37:15;;;;;;;8.23;1.95;;;15.00;99.90;;;;;;5107865;28;20423;-69
2022/11/09 01:39:40;;;;;;;8.90;2.60;;;14.90;99.90;;;;;;5107677;28;20106;-69
2022/11/09 01:42:06;;;;;;;5.40;1.83;;;15.00;99.90;;;;;;5108154;28;20024;-69
2022/11/09 01:44:34;;;;;;;6.60;2.10;;;15.00;99.90;;;;;;5100612;28;20464;-69
2022/11/09 01:47:24;;;;;;;8.27;2.08;;;15.00;99.90;;;;;;5090654;28;20023;-69
2022/11/09 01:49:58;;;;;;;6.00;1.67;;;15.00;99.90;;;;;;5107893;28;20024;-69
2022/11/09 01:52:30;;;;;;;6.05;1.77;;;15.00;99.90;;;;;;5109440;28;20023;-69
2022/11/09 01:55:05;;;;;;;7.38;1.73;;;15.00;99.90;;;;;;5107635;28;20016;-70
2022/11/09 01:57:35;;;;;;;9.40;2.50;;;15.10;99.90;;;;;;5089287;28;20089;-69
2022/11/09 02:00:10;;;;;;;4.95;1.75;;;15.10;99.90;;;;;;5103615;28;20504;-69
2022/11/09 02:02:39;;;;;;;7.75;2.20;;;15.10;99.90;;;;;;5111100;28;20012;-69
2022/11/09 02:05:11;;;;;;;5.85;1.80;;;15.10;99.90;;;;;;5102643;28;20081;-69
2022/11/09 02:07:38;;;;;;;5.07;1.77;;;15.10;99.90;;;;;;5108742;28;20038;-69
2022/11/09 02:10:33;;;;;;;11.55;1.92;;;15.00;99.90;;;;;;5106035;28;20055;-69
2022/11/09 02:13:00;;;;;;;9.23;1.85;;;15.00;99.90;;;;;;5072673;28;20063;-69
2022/11/09 02:15:27;;;;;;;7.55;2.08;;;15.00;99.90;;;;;;5086253;28;20015;-68
2022/11/09 02:17:54;;;;;;;8.40;2.03;;;15.00;99.90;;;;;;5105045;28;20039;-69
2022/11/09 02:20:21;;;;;;;8.48;2.53;;;14.90;99.90;;;;;;5108668;28;20062;-69
2022/11/09 02:22:47;;;;;;;8.10;1.88;;;14.90;99.90;;;;;;5088553;28;20517;-69
2022/11/09 02:25:14;;;;;;;7.30;2.33;;;14.90;99.90;;;;;;5085521;28;20020;-69
2022/11/09 02:27:42;;;;;;;8.25;2.05;;;14.90;99.90;;;;;;5106275;28;20089;-69
2022/11/09 02:30:08;;;;;;;8.40;2.20;;;14.80;99.90;;;;;;5099465;28;20024;-69
2022/11/09 02:32:34;;;;;;;8.50;1.85;;;14.80;99.90;;;;;;5101330;28;20024;-70
2022/11/09 02:35:00;;;;;;;7.93;1.77;;;14.80;99.90;;;;;;5103641;28;20442;-69
2022/11/09 02:37:33;;;;;;;8.13;1.83;;;14.80;99.90;;;;;;5102757;28;20126;-69
2022/11/09 02:40:01;;;;;;;8.70;2.28;;;14.90;99.90;;;;;;5106411;28;20028;-69
2022/11/09 02:42:27;;;;;;;7.18;2.08;;;14.90;99.90;;;;;;5109062;28;20024;-69
2022/11/09 02:44:58;;;;;;;9.70;2.40;;;14.90;99.90;;;;;;5102786;28;20472;-69
2022/11/09 02:47:24;;;;;;;6.63;2.20;;;14.90;99.90;;;;;;5104408;28;20034;-69
2022/11/09 02:49:50;;;;;;;8.18;1.83;;;14.80;99.90;;;;;;5105156;28;20037;-69
2022/11/09 02:52:16;;;;;;;7.25;1.80;;;14.70;99.90;;;;;;5110865;28;20028;-69
2022/11/09 02:54:41;;;;;;;7.43;2.25;;;14.60;99.90;;;;;;5110569;28;20035;-69
2022/11/09 02:57:07;;;;;;;6.55;2.13;;;14.70;99.90;;;;;;5113843;28;20032;-69
2022/11/09 02:59:33;;;;;;;9.38;2.35;;;14.70;99.90;;;;;;5113882;28;20031;-69
2022/11/09 03:01:58;;;;;;;8.00;2.10;;;14.70;99.90;;;;;;5112732;28;20039;-69
2022/11/09 03:04:24;;;;;;;10.57;2.00;;;14.70;99.90;;;;;;5095504;28;20099;-69
2022/11/09 03:06:49;;;;;;;11.05;1.98;;;14.80;99.90;;;;;;5106109;28;20032;-69
2022/11/09 03:09:15;;;;;;;10.70;2.10;;;14.80;99.90;;;;;;5110399;28;20024;-69
2022/11/09 03:11:41;;;;;;;3.88;1.63;;;14.80;99.90;;;;;;5107541;28;20065;-70
2022/11/09 03:14:08;;;;;;;10.88;2.17;;;14.80;99.90;;;;;;5109633;28;20103;-69
2022/11/09 03:16:35;;;;;;;7.05;2.35;;;14.70;99.90;;;;;;5109721;28;20560;-69
2022/11/09 03:19:01;;;;;;;11.13;1.95;;;14.70;99.90;;;;;;5106093;28;20039;-69
2022/11/09 03:21:27;;;;;;;7.28;1.90;;;14.60;99.90;;;;;;5109237;27;20027;-68
2022/11/09 03:23:53;;;;;;;17.38;2.72;;;14.70;99.90;;;;;;5105909;28;20110;-69
2022/11/09 03:26:19;;;;;;;6.50;1.63;;;14.60;99.90;;;;;;5112865;28;20107;-69
2022/11/09 03:28:45;;;;;;;10.45;2.42;;;14.60;99.90;;;;;;5089115;28;20122;-68
2022/11/09 03:31:11;;;;;;;9.10;2.13;;;14.60;99.90;;;;;;5109788;28;20562;-68
2022/11/09 03:33:36;;;;;;;13.75;2.60;;;14.70;99.90;;;;;;5107030;28;20020;-69
2022/11/09 03:36:03;;;;;;;11.00;2.40;;;14.70;99.90;;;;;;5105087;28;20476;-69
2022/11/09 03:38:28;;;;;;;10.77;2.28;;;14.60;99.90;;;;;;5113628;28;20020;-69
2022/11/09 03:40:54;;;;;;;8.38;2.25;;;14.60;99.90;;;;;;5093601;28;20027;-69
2022/11/09 03:43:20;;;;;;;12.05;2.33;;;14.50;99.90;;;;;;5106512;28;20028;-69
2022/11/09 03:45:46;;;;;;;10.25;2.30;;;14.60;99.90;;;;;;5107495;28;20028;-69
2022/11/09 03:48:12;;;;;;;9.50;2.25;;;14.60;99.90;;;;;;5108937;28;20105;-69
2022/11/09 03:50:39;;;;;;;7.38;1.70;;;14.60;99.90;;;;;;5106083;28;20468;-69
2022/11/09 03:53:06;;;;;;;6.97;1.95;;;14.50;99.90;;;;;;5103475;28;20081;-69
2022/11/09 03:55:32;;;;;;;9.15;1.88;;;14.60;99.90;;;;;;5103973;28;20020;-69
2022/11/09 03:57:58;;;;;;;7.50;2.08;;;14.60;99.90;;;;;;5109088;28;20027;-69
2022/11/09 04:00:23;;;;;;;12.15;2.28;;;14.50;99.90;;;;;;5104956;28;20024;-69
2022/11/09 04:02:49;;;;;;;9.85;2.40;;;14.60;99.90;;;;;;5112268;28;20023;-69
2022/11/09 04:05:15;;;;;;;8.90;2.03;;;14.50;99.90;;;;;;5113078;28;20048;-70
2022/11/09 04:07:50;;;;;;;8.30;2.20;;;14.60;99.90;;;;;;5109495;28;20116;-69
2022/11/09 04:10:16;;;;;;;13.25;2.45;;;14.60;99.90;;;;;;5104653;28;20466;-70
2022/11/09 04:12:41;;;;;;;9.70;2.33;;;14.50;99.90;;;;;;5105313;28;20024;-69
2022/11/09 04:15:07;;;;;;;7.68;2.70;;;14.50;99.90;;;;;;5109549;28;20027;-69
2022/11/09 04:17:33;;;;;;;10.68;2.00;;;14.40;99.90;;;;;;5103971;28;20020;-70
2022/11/09 04:19:59;;;;;;;11.68;2.22;;;14.50;99.90;;;;;;5088202;28;20480;-78
2022/11/09 04:22:25;;;;;;;10.30;2.05;;;14.50;99.90;;;;;;5107153;28;20658;-69
2022/11/09 04:24:50;;;;;;;10.38;2.42;;;14.50;99.90;;;;;;5106998;28;20119;-69
2022/11/09 04:27:16;;;;;;;10.20;2.60;;;14.40;99.90;;;;;;5109631;28;20028;-74
2022/11/09 04:29:42;;;;;;;10.02;1.75;;;14.50;99.90;;;;;;5090692;28;20020;-69
2022/11/09 04:32:07;;;;;;;9.55;1.90;;;14.50;99.90;;;;;;5105690;28;20084;-69
2022/11/09 04:34:33;;;;;;;6.90;2.03;;;14.50;99.90;;;;;;5110158;28;20027;-69
2022/11/09 04:36:59;;;;;;;10.23;2.13;;;14.50;99.90;;;;;;5100547;27;20024;-70
2022/11/09 04:39:24;;;;;;;9.07;2.35;;;14.40;99.90;;;;;;5107649;28;20031;-70
2022/11/09 04:41:50;;;;;;;11.98;2.60;;;14.40;99.90;;;;;;5092946;28;20054;-70
2022/11/09 04:44:15;;;;;;;6.25;2.05;;;14.30;99.90;;;;;;5105180;28;20066;-70
2022/11/09 04:46:41;;;;;;;11.68;2.20;;;14.30;99.90;;;;;;5111280;28;20054;-70
2022/11/09 04:49:07;;;;;;;7.75;1.85;;;14.30;99.90;;;;;;5095144;28;20508;-69
2022/11/09 04:51:33;;;;;;;9.40;2.30;;;14.30;99.90;;;;;;5095312;28;20468;-70
2022/11/09 04:53:58;;;;;;;15.18;2.70;;;14.30;99.90;;;;;;5111708;28;20023;-69
2022/11/09 04:56:24;;;;;;;9.70;2.10;;;14.30;99.90;;;;;;5111721;28;20022;-70
2022/11/09 04:58:50;;;;;;;13.27;2.03;;;14.30;99.90;;;;;;5109590;28;20028;-69
2022/11/09 05:01:15;;;;;;;9.45;2.63;;;14.30;99.90;;;;;;5108519;28;20035;-69
2022/11/09 05:03:41;;;;;;;12.00;2.42;;;14.30;99.90;;;;;;5080588;28;20016;-69
2022/11/09 05:08:53;;;;;;;10.18;2.42;;;14.20;99.90;;;;;;5111843;28;20097;-69
2022/11/09 05:11:19;;;;;;;9.48;2.10;;;14.20;99.90;;;;;;5110192;28;20016;-69
2022/11/09 05:13:44;;;;;;;8.95;2.15;;;14.20;99.90;;;;;;5104090;28;20023;-69
2022/11/09 05:16:10;;;;;;;10.55;2.30;;;14.20;99.90;;;;;;5108206;28;20028;-70
2022/11/09 05:18:36;;;;;;;10.48;2.50;;;14.20;99.90;;;;;;5106776;27;20039;-69
2022/11/09 05:21:02;;;;;;;12.07;2.13;;;14.10;99.90;;;;;;5100297;28;20036;-69
2022/11/09 05:26:13;;;;;;;9.45;2.20;;;14.10;99.90;;;;;;5103123;28;20080;-70
2022/11/09 05:28:38;;;;;;;8.02;2.58;;;14.20;99.90;;;;;;5108042;28;20114;-69
2022/11/09 05:31:04;;;;;;;10.18;2.55;;;14.20;99.90;;;;;;5109470;28;20540;-69
2022/11/09 05:33:30;;;;;;;8.75;2.08;;;14.20;99.90;;;;;;5102267;28;20032;-69
2022/11/09 05:35:56;;;;;;;14.02;2.72;;;14.20;99.90;;;;;;5109048;28;20030;-70
2022/11/09 05:38:23;;;;;;;9.68;1.85;;;14.20;99.90;;;;;;5101988;28;20024;-69
2022/11/09 05:40:49;;;;;;;12.63;2.45;;;14.10;99.90;;;;;;5105790;28;20016;-70
2022/11/09 05:43:15;;;;;;;7.30;1.83;;;14.20;99.90;;;;;;5109555;28;20023;-69
2022/11/09 05:45:41;;;;;;;9.52;2.13;;;14.10;99.90;;;;;;5109581;28;20415;-70
2022/11/09 05:48:07;;;;;;;10.23;2.50;;;14.10;99.90;;;;;;5101736;28;20052;-69
2022/11/09 05:50:33;;;;;;;6.88;1.63;;;14.10;99.90;;;;;;5110734;28;20027;-69
2022/11/09 05:53:00;;;;;;;9.60;2.85;;;14.10;99.90;;;;;;5093396;28;20115;-69
2022/11/09 05:55:26;;;;;;;9.38;2.20;;;14.20;99.90;;;;;;5105175;28;20047;-69
2022/11/09 05:57:52;;;;;;;13.45;2.65;;;14.10;99.90;;;;;;5103523;28;20484;-69
2022/11/09 06:00:18;;;;;;;9.63;2.13;;;14.10;99.90;;;;;;5100348;28;20028;-69
2022/11/09 06:02:44;;;;;;;7.68;2.25;;;14.00;99.90;;;;;;5102827;28;20026;-69
2022/11/09 06:05:10;;;;;;;14.38;2.70;;;14.10;99.90;;;;;;5108582;28;20023;-70
2022/11/09 06:07:35;;;;;;;10.88;2.22;;;14.00;99.90;;;;;;5107590;28;20448;-70
2022/11/09 06:10:01;;;;;;;10.10;2.70;;;14.00;99.90;;;;;;5104317;28;20024;-69
2022/11/09 06:12:27;;;;;;;11.93;2.45;;;13.90;99.90;;;;;;5104830;28;20024;-69
2022/11/09 06:14:53;;;;;;;10.18;2.33;;;13.90;99.90;;;;;;5102192;28;20114;-69
2022/11/09 06:17:18;;;;;;;12.43;2.40;;;13.90;99.90;;;;;;5104274;28;20039;-70
2022/11/09 06:19:44;;;;;;;9.43;2.45;;;13.90;99.90;;;;;;5103557;28;20068;-70
2022/11/09 06:22:11;;;;;;;7.38;2.20;;;13.80;99.90;;;;;;5101806;28;20031;-69
2022/11/09 06:24:36;;;;;;;10.23;1.75;;;13.80;99.90;;;;;;5106884;28;20041;-69
2022/11/09 06:27:02;;;;;;;8.10;2.03;;;13.90;99.90;;;;;;5105227;28;20375;-69
2022/11/09 06:29:28;;;;;;;6.75;1.77;;;13.80;99.90;;;;;;5112007;28;20036;-75
2022/11/09 06:31:54;;;;;;;10.77;2.20;;;13.80;99.90;;;;;;5103536;28;20033;-70
2022/11/09 06:34:20;;;;;;;5.50;1.95;;;13.80;99.90;;;;;;5109641;28;20028;-69
2022/11/09 06:36:45;;;;;;;7.53;2.20;;;13.80;99.90;;;;;;5107796;28;20095;-70
2022/11/09 06:39:11;;;;;;;6.82;2.13;;;13.70;99.90;;;;;;5110612;28;20031;-69
2022/11/09 06:41:37;;;;;;;11.48;2.33;;;13.70;99.90;;;;;;5093788;28;20022;-69
2022/11/09 06:44:04;;;;;;;5.90;1.80;;;13.70;99.90;;;;;;5111338;28;20074;-69
2022/11/09 06:46:30;;;;;;;11.48;2.25;;;13.70;99.90;;;;;;5104420;27;20012;-69
2022/11/09 06:48:56;;;;;;;6.72;1.95;;;13.70;99.90;;;;;;5109581;28;20514;-69
2022/11/09 06:51:22;;;;;;;9.70;2.65;;;13.70;99.90;;;;;;5111145;28;20047;-69
2022/11/09 06:53:48;;;;;;;9.05;2.55;;;13.60;99.90;;;;;;5107791;27;20027;-69
2022/11/09 06:56:13;;;;;;;7.03;2.20;;;13.60;99.90;;;;;;5110552;28;20115;-69
2022/11/09 06:58:39;;;;;;;7.65;2.30;;;13.50;99.90;;;;;;5114378;28;20030;-69
2022/11/09 07:01:15;;;;;;;8.35;2.15;;;13.60;99.90;;;;;;5091787;28;20444;-69
2022/11/09 07:03:41;;;;;;;7.57;2.50;;;13.50;99.90;;;;;;5107420;27;20447;-69
2022/11/09 07:06:08;;;;;;;11.43;2.58;;;13.50;99.90;;;;;;5094276;28;20024;-69
2022/11/09 07:08:35;;;;;;;11.75;2.40;;;13.50;99.90;;;;;;5112021;28;20023;-70
2022/11/09 07:11:11;;;;;;;14.80;2.60;;;13.60;99.90;;;;;;5105946;28;20039;-69
2022/11/09 07:13:38;;;;;;;8.65;2.40;;;13.50;99.90;;;;;;5104595;28;20114;-70
2022/11/09 07:16:05;;;;;;;9.23;2.00;;;13.60;99.90;;;;;;5107555;28;20028;-68
2022/11/09 07:18:31;;;;;;;7.57;1.95;;;13.50;99.90;;;;;;5108288;28;20496;-69
2022/11/09 07:20:57;;;;;;;8.25;2.63;;;13.50;99.90;;;;;;5108796;28;20747;-69
2022/11/09 07:23:22;;;;;;;12.32;2.33;;;13.50;99.90;;;;;;5113663;28;20024;-69
2022/11/09 07:25:48;;;;;;;8.68;2.50;;;13.40;99.90;;;;;;5107653;28;20035;-69
2022/11/09 07:28:14;;;;;;;6.07;2.17;;;13.40;99.90;;;;;;5104500;28;20028;-69
2022/11/09 07:30:39;;;;;;;9.95;2.33;;;13.40;99.90;;;;;;5110413;28;20422;-69
2022/11/09 07:33:19;;;;;;;8.82;1.90;;;13.50;99.90;;;;;;5106100;28;20495;-69
2022/11/09 07:35:45;;;;;;;7.07;2.28;;;13.50;99.90;;;;;;5109092;28;20400;-69
2022/11/09 07:38:12;;;;;;;7.00;1.92;;;13.40;99.90;;;;;;5104286;28;20356;-68
2022/11/09 07:40:38;;;;;;;10.35;2.10;;;13.50;99.90;;;;;;5107967;28;20104;-69
2022/11/09 07:43:05;;;;;;;6.82;2.17;;;13.50;99.90;;;;;;5090663;28;20055;-69
2022/11/09 07:45:32;;;;;;;7.50;2.47;;;13.50;99.90;;;;;;5104103;28;20498;-69
2022/11/09 07:48:03;;;;;;;7.22;1.95;;;13.50;99.90;;;;;;5107013;28;20428;-69
2022/11/09 07:50:31;;;;;;;7.95;2.33;;;13.50;99.90;;;;;;5092987;28;20024;-69
2022/11/09 07:52:58;;;;;;;10.98;2.28;;;13.50;99.90;;;;;;5112762;28;20475;-70
2022/11/09 07:55:24;;;;;;;9.48;2.60;;;13.50;99.90;;;;;;5108705;28;20027;-69
2022/11/09 07:57:58;;;;;;;6.07;2.20;;;13.50;99.90;;;;;;5103318;28;20028;-69
2022/11/09 08:00:28;;;;;;;10.35;2.35;;;13.50;99.90;;;;;;5106274;28;20107;-69
2022/11/09 08:02:54;;;;;;;10.23;2.97;;;13.50;99.90;;;;;;5110837;28;20034;-69
2022/11/09 08:05:19;;;;;;;8.75;2.60;;;13.50;99.90;;;;;;5109459;28;20122;-69
2022/11/09 08:07:45;;;;;;;8.55;2.60;;;13.60;99.90;;;;;;5106876;28;20034;-69
2022/11/09 08:10:11;;;;;;;15.63;2.60;;;13.60;99.90;;;;;;5105341;28;20027;-69
2022/11/09 08:12:37;;;;;;;6.18;1.88;;;13.60;99.90;;;;;;5107566;28;20039;-69
2022/11/09 08:15:04;;;;;;;6.28;2.35;;;13.60;99.90;;;;;;5102863;28;20037;-69
2022/11/09 08:17:30;;;;;;;8.50;2.13;;;13.70;99.90;;;;;;5058881;28;1241367;-69
2022/11/09 08:19:56;;;;;;;9.82;2.30;;;13.60;99.90;;;;;;5108177;28;20046;-69
2022/11/09 08:22:21;;;;;;;10.20;2.72;;;13.70;99.90;;;;;;5110010;28;20023;-69
2022/11/09 08:24:47;;;;;;;9.25;2.65;;;13.70;99.90;;;;;;5107373;28;20128;-69
2022/11/09 08:27:12;;;;;;;8.55;2.08;;;13.70;99.90;;;;;;5109449;28;20034;-69
2022/11/09 08:29:38;;;;;;;7.15;2.10;;;13.70;99.90;;;;;;5109270;28;20072;-70
2022/11/09 08:32:04;;;;;;;7.10;1.90;;;13.70;99.90;;;;;;5112019;28;20055;-69
2022/11/09 08:34:30;;;;;;;9.05;2.70;;;13.70;99.90;;;;;;5094639;28;20089;-70
2022/11/09 08:36:58;;;;;;;9.52;2.47;;;13.80;99.90;;;;;;5109159;27;20072;-69
2022/11/09 08:39:24;;;;;;;5.75;2.17;;;13.80;99.90;;;;;;5103766;28;20028;-69
2022/11/09 08:41:49;;;;;;;13.45;3.25;;;13.70;99.90;;;;;;5108329;28;20543;-70
2022/11/09 08:44:15;;;;;;;9.07;2.50;;;13.60;99.90;;;;;;5100822;28;20036;-69
2022/11/09 08:46:41;;;;;;;13.88;2.88;;;13.70;99.90;;;;;;5106839;28;20020;-75
2022/11/09 08:49:06;;;;;;;8.52;2.50;;;13.80;99.90;;;;;;5105185;28;20043;-69
2022/11/09 08:51:32;;;;;;;9.73;2.03;;;13.70;99.90;;;;;;5104236;28;20019;-69
2022/11/09 08:53:57;;;;;;;9.57;2.50;;;13.80;99.90;;;;;;5110119;28;20031;-69
2022/11/09 08:56:23;;;;;;;9.63;2.15;;;13.80;99.90;;;;;;5112116;28;20068;-69
2022/11/09 08:58:49;;;;;;;8.43;2.15;;;13.70;99.90;;;;;;5100982;28;20036;-69
2022/11/09 09:01:16;;;;;;;8.68;2.75;;;13.70;99.90;;;;;;5106601;28;20012;-69
2022/11/09 09:03:41;;;;;;;6.65;1.85;;;13.80;99.90;;;;;;5108493;28;20152;-69
2022/11/09 09:06:07;;;;;;;10.90;2.58;;;13.80;99.90;;;;;;5106992;28;20110;-69
2022/11/09 09:08:33;;;;;;;8.95;2.75;;;13.80;99.90;;;;;;5104063;28;20039;-70
2022/11/09 09:11:03;;;;;;;12.18;2.72;;;13.90;99.90;;;;;;5108885;28;20039;-69
2022/11/09 09:13:30;;;;;;;11.10;2.53;;;13.90;99.90;;;;;;5105181;28;20035;-69
2022/11/09 09:15:55;;;;;;;10.95;2.85;;;13.90;99.90;;;;;;5106866;28;20023;-69
2022/11/09 09:18:21;;;;;;;10.63;2.58;;;14.00;99.90;;;;;;5110985;28;20043;-69
2022/11/09 09:20:46;;;;;;;9.73;2.60;;;14.10;99.90;;;;;;5105122;27;20028;-69
2022/11/09 09:23:14;;;;;;;14.35;2.58;;;14.20;99.90;;;;;;5108349;28;20561;-69
2022/11/09 09:25:40;;;;;;;9.18;2.33;;;14.10;99.90;;;;;;5107613;28;20053;-69
2022/11/09 09:28:05;;;;;;;9.77;1.95;;;14.20;99.90;;;;;;5106655;27;20075;-69
2022/11/09 09:30:31;;;;;;;11.43;2.50;;;14.30;99.90;;;;;;5107197;28;20179;-70
2022/11/09 09:32:59;;;;;;;13.18;2.63;;;14.40;99.90;;;;;;5104927;28;20043;-69
2022/11/09 09:35:25;;;;;;;10.70;2.30;;;14.50;99.90;;;;;;5107641;28;20115;-70
2022/11/09 09:37:50;;;;;;;8.55;2.20;;;14.60;99.90;;;;;;5100677;28;20081;-70
2022/11/09 09:40:25;;;;;;;11.25;3.20;;;14.70;99.90;;;;;;5105497;28;20464;-71
2022/11/09 09:42:53;;;;;;;12.35;2.58;;;14.70;99.90;;;;;;5108368;28;20031;-69
2022/11/09 09:45:26;;;;;;;16.90;3.05;;;14.90;99.90;;;;;;5109930;28;20027;-70
2022/11/09 09:48:01;;;;;;;15.60;2.92;;;14.90;99.90;;;;;;5105752;28;20019;-70
2022/11/09 09:50:31;;;;;;;13.02;2.40;;;14.90;99.90;;;;;;5098483;28;20032;-68
2022/11/09 09:53:01;;;;;;;7.45;2.58;;;14.90;99.90;;;;;;5101836;28;20032;-69
2022/11/09 09:55:39;;;;;;;13.02;2.53;;;15.00;99.90;;;;;;5101662;28;20376;-69
2022/11/09 09:58:21;;;;;;;13.25;2.42;;;15.10;99.90;;;;;;5086163;28;20384;-70
2022/11/09 10:00:49;;;;;;;6.93;2.30;;;15.10;99.90;;;;;;5106930;28;20487;-70
2022/11/09 10:03:18;;;;;;;10.95;2.40;;;15.10;99.90;;;;;;5109732;28;20549;-69
2022/11/09 10:06:15;;;;;;;7.68;1.95;;;15.10;99.90;;;;;;5109891;28;20410;-70
2022/11/09 10:08:55;;;;;;;10.15;2.10;;;15.20;99.90;;;;;;5104153;28;20563;-70
2022/11/09 10:11:39;;;;;;;9.48;2.10;;;15.30;99.90;;;;;;5102941;28;20119;-70
2022/11/09 10:14:31;;;;;;;13.27;2.17;;;15.40;99.90;;;;;;5108031;28;20024;-69
2022/11/09 10:17:22;;;;;;;11.50;2.00;;;15.30;99.90;;;;;;5063304;28;20127;-70
2022/11/09 10:20:05;;;;;;;9.45;2.15;;;15.40;99.90;;;;;;5086225;28;20515;-69
2022/11/09 10:22:45;;;;;;;8.55;2.13;;;15.40;99.90;;;;;;5100530;28;20032;-70
2022/11/09 10:25:25;;;;;;;11.48;1.98;;;15.50;99.90;;;;;;5108555;28;20020;-69
2022/11/09 10:28:00;;;;;;;10.07;1.80;;;15.50;99.90;;;;;;5109302;28;20149;-70
2022/11/09 10:30:27;;;;;;;10.55;1.90;;;15.60;99.90;;;;;;5106797;28;20015;-69
2022/11/09 10:33:09;;;;;;;10.45;1.80;;;15.70;99.90;;;;;;5111451;28;20035;-69
2022/11/09 10:35:44;;;;;;;6.43;2.03;;;15.60;99.90;;;;;;5098794;28;20072;-69
2022/11/09 10:38:18;;;;;;;9.95;2.85;;;15.60;99.90;;;;;;5088303;28;20035;-69
2022/11/09 10:41:20;;;;;;;9.07;1.90;;;15.70;99.90;;;;;;5099020;28;20020;-70
2022/11/09 10:43:45;;;;;;;9.25;2.10;;;15.80;99.90;;;;;;5101487;28;20019;-70
2022/11/09 10:46:11;;;;;;;25.10;8.75;;;15.70;99.90;;;;;;5105378;28;20023;-70
2022/11/09 10:48:38;;;;;;;15.10;3.20;;;15.80;99.90;;;;;;5099134;28;20072;-70
2022/11/09 10:51:17;;;;;;;7.38;2.10;;;15.80;99.90;;;;;;5105606;28;20024;-69
2022/11/09 10:53:43;;;;;;;22.92;6.78;;;15.90;99.90;;;;;;5104663;28;20528;-70
2022/11/09 10:56:17;;;;;;;10.98;2.60;;;15.90;99.90;;;;;;5107786;28;20100;-70
2022/11/09 10:58:51;;;;;;;8.32;1.45;;;16.10;99.90;;;;;;5101785;28;20027;-70
2022/11/09 11:01:21;;;;;;;11.30;1.55;;;16.10;99.90;;;;;;5107343;28;20449;-70
2022/11/09 11:03:52;;;;;;;9.52;2.30;;;16.00;99.90;;;;;;5105562;28;20051;-71
2022/11/09 11:06:20;;;;;;;8.40;1.80;;;15.90;99.90;;;;;;5104325;28;20032;-70
2022/11/09 11:08:56;;;;;;;6.15;1.92;;;16.00;99.90;;;;;;5110942;28;20036;-70
2022/11/09 11:11:30;;;;;;;6.32;1.65;;;16.00;99.90;;;;;;5088796;28;20110;-69
2022/11/09 11:14:23;;;;;;;4.95;1.67;;;16.10;99.90;;;;;;5107382;28;20028;-69
2022/11/09 11:16:51;;;;;;;8.85;1.92;;;16.00;99.90;;;;;;5107710;28;20354;-69
2022/11/09 11:19:28;;;;;;;5.63;1.30;;;16.00;99.90;;;;;;5113070;28;20027;-71
2022/11/09 11:22:13;;;;;;;9.63;1.67;;;16.10;99.90;;;;;;5102669;28;20023;-70
2022/11/09 11:24:58;;;;;;;9.85;1.80;;;16.10;99.90;;;;;;5103682;28;20046;-81
2022/11/09 11:27:29;;;;;;;8.75;1.60;;;16.10;99.90;;;;;;5106180;28;20360;-71
2022/11/09 11:30:09;;;;;;;8.30;1.70;;;16.20;99.90;;;;;;5092157;28;20361;-71
2022/11/09 11:32:35;;;;;;;8.77;1.95;;;16.10;99.90;;;;;;5107735;28;20081;-70
2022/11/09 11:35:03;;;;;;;6.70;1.42;;;16.00;99.90;;;;;;5095338;28;20508;-71
2022/11/09 11:37:45;;;;;;;9.48;1.58;;;16.00;99.90;;;;;;5101653;28;20020;-71
2022/11/09 11:40:21;;;;;;;6.35;1.42;;;16.00;99.90;;;;;;5103019;28;20035;-71
2022/11/09 11:43:10;;;;;;;8.50;1.70;;;15.90;99.90;;;;;;5113330;28;20045;-71
2022/11/09 11:45:41;;;;;;;7.53;1.75;;;15.90;99.90;;;;;;5090031;28;20495;-71
2022/11/09 11:48:25;;;;;;;5.57;1.90;;;15.90;99.90;;;;;;5090879;28;20071;-71
2022/11/09 11:51:24;;;;;;;7.05;1.52;;;15.80;99.90;;;;;;5107626;28;20475;-70
2022/11/09 11:53:59;;;;;;;4.43;1.33;;;15.80;99.90;;;;;;5104314;28;20077;-72
2022/11/09 11:56:28;;;;;;;5.57;1.55;;;15.80;99.90;;;;;;5087125;28;20490;-72
2022/11/09 11:59:26;;;;;;;8.73;1.75;;;15.80;99.90;;;;;;5106490;28;20084;-71
2022/11/09 12:02:25;;;;;;;10.77;1.90;;;15.70;99.90;;;;;;5108557;28;20449;-69
2022/11/09 12:05:03;;;;;;;6.32;1.52;;;15.80;99.90;;;;;;5110522;28;20077;-70
2022/11/09 12:07:47;;;;;;;8.43;1.88;;;15.90;99.90;;;;;;5102947;28;20093;-70
2022/11/09 12:10:22;;;;;;;10.20;2.28;;;16.00;99.90;;;;;;5101424;28;20028;-70
2022/11/09 12:13:10;;;;;;;8.45;1.85;;;16.10;99.90;;;;;;5090321;28;20062;-72
2022/11/09 12:16:08;;;;;;;6.68;2.15;;;16.10;99.90;;;;;;5092753;28;20016;-70
2022/11/09 12:18:48;;;;;;;8.95;1.83;;;16.10;99.90;;;;;;5103022;28;20039;-74
2022/11/09 12:21:15;;;;;;;9.30;1.85;;;16.10;99.90;;;;;;5104880;28;20109;-70
2022/11/09 12:23:47;;;;;;;10.30;2.20;;;16.10;99.90;;;;;;5104349;28;20024;-69
2022/11/09 12:26:15;;;;;;;11.95;2.28;;;16.10;99.90;;;;;;5110885;28;20065;-70
2022/11/09 12:29:13;;;;;;;6.72;2.00;;;16.10;99.90;;;;;;5112425;28;20518;-70
2022/11/09 12:32:02;;;;;;;9.90;2.15;;;16.10;99.90;;;;;;5108324;28;20029;-70
2022/11/09 12:34:35;;;;;;;9.10;2.42;;;16.20;99.90;;;;;;5078578;28;20471;-69
2022/11/09 12:37:03;;;;;;;9.40;1.92;;;16.20;99.90;;;;;;5104133;28;20019;-70
2022/11/09 12:39:44;;;;;;;10.55;1.95;;;16.20;99.90;;;;;;5104415;28;20043;-69
2022/11/09 12:42:19;;;;;;;12.32;2.17;;;16.10;99.90;;;;;;5110109;28;20012;-69
2022/11/09 12:44:54;;;;;;;11.02;2.08;;;16.10;99.90;;;;;;5108966;28;20491;-69
2022/11/09 12:47:27;;;;;;;7.13;2.08;;;16.10;99.90;;;;;;5106223;28;20027;-68
2022/11/09 12:49:55;;;;;;;9.90;2.20;;;16.10;99.90;;;;;;5107926;28;21807;-68
2022/11/09 12:52:25;;;;;;;9.30;2.33;;;16.00;99.90;;;;;;5102248;28;20369;-69
2022/11/09 12:54:52;;;;;;;6.70;1.70;;;16.00;99.90;;;;;;5107542;28;20020;-69
2022/11/09 12:57:28;;;;;;;7.35;1.95;;;15.90;99.90;;;;;;5100636;27;20023;-69
2022/11/09 12:59:56;;;;;;;4.85;1.80;;;15.80;99.90;;;;;;5108044;28;20051;-70